sensor_id;sensor_type;location;lat;lon;timestamp;P1;durP1;ratioP1;P2;durP2;ratioP2
24995;SDS011;13016;52.162;21.034;2023-05-07T00:04:34;4.20;;;2.80;;
24995;SDS011;13016;52.162;21.034;2023-05-07T00:10:48;5.00;;;3.50;;
24995;SDS011;13016;52.162;21.034;2023-05-07T00:16:49;4.10;;;2.70;;
24995;SDS011;13016;52.162;21.034;2023-05-07T00:22:51;4.90;;;2.90;;
24995;SDS011;13016;52.162;21.034;2023-05-07T00:28:58;7.10;;;3.40;;
24995;SDS011;13016;52.162;21.034;2023-05-07T00:34:59;6.20;;;2.90;;
24995;SDS011;13016;52.162;21.034;2023-05-07T00:47:44;5.80;;;3.00;;
24995;SDS011;13016;52.162;21.034;2023-05-07T01:04:32;3.40;;;2.70;;
24995;SDS011;13016;52.162;21.034;2023-05-07T01:10:32;4.50;;;2.70;;
24995;SDS011;13016;52.162;21.034;2023-05-07T01:16:41;7.20;;;3.80;;
24995;SDS011;13016;52.162;21.034;2023-05-07T01:23:01;6.10;;;3.70;;
24995;SDS011;13016;52.162;21.034;2023-05-07T01:29:03;4.50;;;3.30;;
24995;SDS011;13016;52.162;21.034;2023-05-07T01:35:04;4.00;;;3.20;;
24995;SDS011;13016;52.162;21.034;2023-05-07T01:41:12;4.10;;;2.90;;
24995;SDS011;13016;52.162;21.034;2023-05-07T01:47:20;3.70;;;2.90;;
24995;SDS011;13016;52.162;21.034;2023-05-07T01:53:27;4.50;;;3.30;;
24995;SDS011;13016;52.162;21.034;2023-05-07T01:59:45;5.10;;;3.10;;
24995;SDS011;13016;52.162;21.034;2023-05-07T02:05:45;3.50;;;2.60;;
24995;SDS011;13016;52.162;21.034;2023-05-07T02:11:51;6.80;;;4.10;;
24995;SDS011;13016;52.162;21.034;2023-05-07T02:18:05;4.00;;;3.10;;
24995;SDS011;13016;52.162;21.034;2023-05-07T02:24:13;4.10;;;2.70;;
24995;SDS011;13016;52.162;21.034;2023-05-07T02:30:14;3.00;;;2.70;;
24995;SDS011;13016;52.162;21.034;2023-05-07T02:39:15;4.20;;;3.10;;
24995;SDS011;13016;52.162;21.034;2023-05-07T02:51:32;4.30;;;2.70;;
24995;SDS011;13016;52.162;21.034;2023-05-07T02:57:33;3.20;;;2.40;;
24995;SDS011;13016;52.162;21.034;2023-05-07T03:03:34;7.20;;;2.70;;
24995;SDS011;13016;52.162;21.034;2023-05-07T03:09:44;4.10;;;2.90;;
24995;SDS011;13016;52.162;21.034;2023-05-07T03:21:47;3.90;;;2.50;;
24995;SDS011;13016;52.162;21.034;2023-05-07T03:27:48;3.90;;;2.00;;
24995;SDS011;13016;52.162;21.034;2023-05-07T03:33:55;3.70;;;2.40;;
24995;SDS011;13016;52.162;21.034;2023-05-07T03:40:03;4.10;;;2.40;;
24995;SDS011;13016;52.162;21.034;2023-05-07T03:46:04;3.80;;;2.60;;
24995;SDS011;13016;52.162;21.034;2023-05-07T03:52:04;3.80;;;2.40;;
24995;SDS011;13016;52.162;21.034;2023-05-07T04:04:41;3.40;;;2.20;;
24995;SDS011;13016;52.162;21.034;2023-05-07T04:42:34;5.10;;;2.90;;
24995;SDS011;13016;52.162;21.034;2023-05-07T04:48:35;3.80;;;2.60;;
24995;SDS011;13016;52.162;21.034;2023-05-07T04:54:36;2.90;;;2.30;;
24995;SDS011;13016;52.162;21.034;2023-05-07T05:00:36;5.70;;;2.20;;
24995;SDS011;13016;52.162;21.034;2023-05-07T05:06:38;6.00;;;2.60;;
24995;SDS011;13016;52.162;21.034;2023-05-07T05:12:45;4.30;;;2.90;;
24995;SDS011;13016;52.162;21.034;2023-05-07T05:18:45;3.20;;;2.40;;
24995;SDS011;13016;52.162;21.034;2023-05-07T05:24:46;2.70;;;2.30;;
24995;SDS011;13016;52.162;21.034;2023-05-07T05:30:46;2.20;;;2.00;;
24995;SDS011;13016;52.162;21.034;2023-05-07T05:37:12;2.40;;;1.90;;
24995;SDS011;13016;52.162;21.034;2023-05-07T05:43:13;5.10;;;1.90;;
24995;SDS011;13016;52.162;21.034;2023-05-07T05:49:41;2.30;;;1.80;;
24995;SDS011;13016;52.162;21.034;2023-05-07T05:56:07;2.80;;;1.60;;
24995;SDS011;13016;52.162;21.034;2023-05-07T06:02:28;3.30;;;2.20;;
24995;SDS011;13016;52.162;21.034;2023-05-07T06:08:33;4.50;;;1.90;;
24995;SDS011;13016;52.162;21.034;2023-05-07T06:14:38;3.30;;;1.60;;
24995;SDS011;13016;52.162;21.034;2023-05-07T06:20:46;1.70;;;1.50;;
24995;SDS011;13016;52.162;21.034;2023-05-07T06:26:48;1.80;;;1.60;;
24995;SDS011;13016;52.162;21.034;2023-05-07T06:32:48;2.20;;;1.60;;
24995;SDS011;13016;52.162;21.034;2023-05-07T06:38:49;1.80;;;1.30;;
24995;SDS011;13016;52.162;21.034;2023-05-07T07:08:33;3.20;;;1.50;;
24995;SDS011;13016;52.162;21.034;2023-05-07T07:14:41;2.70;;;2.00;;
24995;SDS011;13016;52.162;21.034;2023-05-07T07:20:45;3.10;;;1.90;;
24995;SDS011;13016;52.162;21.034;2023-05-07T07:26:45;2.60;;;1.80;;
24995;SDS011;13016;52.162;21.034;2023-05-07T07:32:46;2.00;;;1.50;;
24995;SDS011;13016;52.162;21.034;2023-05-07T07:38:47;2.40;;;1.60;;
24995;SDS011;13016;52.162;21.034;2023-05-07T07:44:49;1.70;;;1.40;;
24995;SDS011;13016;52.162;21.034;2023-05-07T07:50:53;2.10;;;1.60;;
24995;SDS011;13016;52.162;21.034;2023-05-07T07:56:53;2.00;;;1.50;;
24995;SDS011;13016;52.162;21.034;2023-05-07T08:02:54;2.40;;;1.80;;
24995;SDS011;13016;52.162;21.034;2023-05-07T08:08:54;2.50;;;2.00;;
24995;SDS011;13016;52.162;21.034;2023-05-07T08:14:55;2.30;;;1.80;;
24995;SDS011;13016;52.162;21.034;2023-05-07T08:20:55;3.10;;;1.70;;
24995;SDS011;13016;52.162;21.034;2023-05-07T08:26:56;2.80;;;1.90;;
24995;SDS011;13016;52.162;21.034;2023-05-07T08:32:56;2.30;;;1.80;;
24995;SDS011;13016;52.162;21.034;2023-05-07T08:38:56;2.60;;;1.90;;
24995;SDS011;13016;52.162;21.034;2023-05-07T08:44:57;2.20;;;1.90;;
24995;SDS011;13016;52.162;21.034;2023-05-07T08:51:12;2.50;;;1.70;;
24995;SDS011;13016;52.162;21.034;2023-05-07T08:57:25;2.50;;;1.70;;
24995;SDS011;13016;52.162;21.034;2023-05-07T09:03:25;3.20;;;1.80;;
24995;SDS011;13016;52.162;21.034;2023-05-07T09:09:25;2.40;;;1.90;;
24995;SDS011;13016;52.162;21.034;2023-05-07T09:15:28;5.60;;;1.70;;
24995;SDS011;13016;52.162;21.034;2023-05-07T09:21:35;2.40;;;1.60;;
24995;SDS011;13016;52.162;21.034;2023-05-07T09:27:35;2.80;;;1.50;;
24995;SDS011;13016;52.162;21.034;2023-05-07T09:33:38;1.60;;;1.20;;
24995;SDS011;13016;52.162;21.034;2023-05-07T09:39:43;2.00;;;1.80;;
24995;SDS011;13016;52.162;21.034;2023-05-07T09:45:49;3.30;;;1.90;;
24995;SDS011;13016;52.162;21.034;2023-05-07T09:51:50;2.60;;;1.80;;
24995;SDS011;13016;52.162;21.034;2023-05-07T09:57:52;2.90;;;1.60;;
24995;SDS011;13016;52.162;21.034;2023-05-07T10:03:53;2.90;;;1.60;;
24995;SDS011;13016;52.162;21.034;2023-05-07T10:09:56;1.90;;;1.70;;
24995;SDS011;13016;52.162;21.034;2023-05-07T10:15:59;2.10;;;1.60;;
24995;SDS011;13016;52.162;21.034;2023-05-07T10:22:26;2.00;;;1.60;;
24995;SDS011;13016;52.162;21.034;2023-05-07T10:28:30;2.00;;;1.70;;
24995;SDS011;13016;52.162;21.034;2023-05-07T10:34:36;2.40;;;1.80;;
24995;SDS011;13016;52.162;21.034;2023-05-07T10:40:39;4.10;;;1.60;;
24995;SDS011;13016;52.162;21.034;2023-05-07T10:46:40;3.20;;;1.60;;
24995;SDS011;13016;52.162;21.034;2023-05-07T10:52:40;3.00;;;1.60;;
24995;SDS011;13016;52.162;21.034;2023-05-07T10:58:40;2.30;;;1.50;;
24995;SDS011;13016;52.162;21.034;2023-05-07T11:04:40;3.10;;;1.80;;
24995;SDS011;13016;52.162;21.034;2023-05-07T11:10:50;2.60;;;1.90;;
24995;SDS011;13016;52.162;21.034;2023-05-07T11:16:54;2.30;;;1.70;;
24995;SDS011;13016;52.162;21.034;2023-05-07T11:23:02;3.30;;;1.70;;
24995;SDS011;13016;52.162;21.034;2023-05-07T11:29:03;2.10;;;1.60;;
24995;SDS011;13016;52.162;21.034;2023-05-07T11:35:11;2.80;;;1.70;;
24995;SDS011;13016;52.162;21.034;2023-05-07T11:47:19;2.50;;;1.60;;
24995;SDS011;13016;52.162;21.034;2023-05-07T11:53:20;1.60;;;1.50;;
24995;SDS011;13016;52.162;21.034;2023-05-07T11:59:24;3.50;;;1.70;;
24995;SDS011;13016;52.162;21.034;2023-05-07T12:05:30;5.10;;;1.80;;
24995;SDS011;13016;52.162;21.034;2023-05-07T12:11:33;2.70;;;1.50;;
24995;SDS011;13016;52.162;21.034;2023-05-07T12:17:33;2.40;;;1.60;;
24995;SDS011;13016;52.162;21.034;2023-05-07T12:23:35;2.10;;;1.40;;
24995;SDS011;13016;52.162;21.034;2023-05-07T12:29:36;4.30;;;1.50;;
24995;SDS011;13016;52.162;21.034;2023-05-07T12:35:37;3.00;;;1.40;;
24995;SDS011;13016;52.162;21.034;2023-05-07T12:41:52;4.50;;;1.60;;
24995;SDS011;13016;52.162;21.034;2023-05-07T12:54:46;2.90;;;1.40;;
24995;SDS011;13016;52.162;21.034;2023-05-07T13:00:48;2.00;;;1.50;;
24995;SDS011;13016;52.162;21.034;2023-05-07T13:06:49;1.90;;;1.40;;
24995;SDS011;13016;52.162;21.034;2023-05-07T13:12:49;3.00;;;1.40;;
24995;SDS011;13016;52.162;21.034;2023-05-07T13:18:50;3.30;;;1.50;;
24995;SDS011;13016;52.162;21.034;2023-05-07T13:24:50;2.40;;;1.60;;
24995;SDS011;13016;52.162;21.034;2023-05-07T13:30:51;2.80;;;1.80;;
24995;SDS011;13016;52.162;21.034;2023-05-07T13:42:53;2.00;;;1.30;;
24995;SDS011;13016;52.162;21.034;2023-05-07T13:48:53;1.20;;;1.10;;
24995;SDS011;13016;52.162;21.034;2023-05-07T13:54:54;1.80;;;1.40;;
24995;SDS011;13016;52.162;21.034;2023-05-07T14:00:54;1.60;;;1.10;;
24995;SDS011;13016;52.162;21.034;2023-05-07T14:06:54;2.00;;;1.70;;
24995;SDS011;13016;52.162;21.034;2023-05-07T14:12:54;2.00;;;1.50;;
24995;SDS011;13016;52.162;21.034;2023-05-07T14:18:55;2.00;;;1.30;;
24995;SDS011;13016;52.162;21.034;2023-05-07T14:24:56;1.40;;;1.10;;
24995;SDS011;13016;52.162;21.034;2023-05-07T14:30:56;2.00;;;1.40;;
24995;SDS011;13016;52.162;21.034;2023-05-07T14:36:57;1.70;;;1.60;;
24995;SDS011;13016;52.162;21.034;2023-05-07T14:42:58;3.40;;;1.50;;
24995;SDS011;13016;52.162;21.034;2023-05-07T14:48:58;4.10;;;1.40;;
24995;SDS011;13016;52.162;21.034;2023-05-07T14:54:58;3.00;;;1.50;;
24995;SDS011;13016;52.162;21.034;2023-05-07T15:00:58;2.00;;;1.40;;
24995;SDS011;13016;52.162;21.034;2023-05-07T15:06:59;1.80;;;1.50;;
24995;SDS011;13016;52.162;21.034;2023-05-07T15:13:00;1.80;;;1.40;;
24995;SDS011;13016;52.162;21.034;2023-05-07T15:19:00;3.30;;;1.30;;
24995;SDS011;13016;52.162;21.034;2023-05-07T15:25:00;2.80;;;1.30;;
24995;SDS011;13016;52.162;21.034;2023-05-07T15:31:00;1.30;;;1.20;;
24995;SDS011;13016;52.162;21.034;2023-05-07T15:37:01;3.00;;;1.80;;
24995;SDS011;13016;52.162;21.034;2023-05-07T15:43:01;2.50;;;1.60;;
24995;SDS011;13016;52.162;21.034;2023-05-07T15:49:02;1.60;;;1.50;;
24995;SDS011;13016;52.162;21.034;2023-05-07T15:55:02;1.80;;;1.40;;
24995;SDS011;13016;52.162;21.034;2023-05-07T16:01:03;2.30;;;1.50;;
24995;SDS011;13016;52.162;21.034;2023-05-07T16:07:04;6.00;;;1.60;;
24995;SDS011;13016;52.162;21.034;2023-05-07T16:13:04;2.00;;;1.50;;
24995;SDS011;13016;52.162;21.034;2023-05-07T16:19:04;3.80;;;1.70;;
24995;SDS011;13016;52.162;21.034;2023-05-07T16:25:05;3.00;;;1.70;;
24995;SDS011;13016;52.162;21.034;2023-05-07T16:31:08;3.00;;;1.60;;
24995;SDS011;13016;52.162;21.034;2023-05-07T16:37:09;3.30;;;1.80;;
24995;SDS011;13016;52.162;21.034;2023-05-07T16:43:09;2.50;;;1.70;;
24995;SDS011;13016;52.162;21.034;2023-05-07T16:49:09;3.00;;;1.70;;
24995;SDS011;13016;52.162;21.034;2023-05-07T16:55:12;5.10;;;1.70;;
24995;SDS011;13016;52.162;21.034;2023-05-07T17:17:12;4.20;;;1.90;;
24995;SDS011;13016;52.162;21.034;2023-05-07T17:23:19;3.30;;;1.80;;
24995;SDS011;13016;52.162;21.034;2023-05-07T17:29:32;2.90;;;1.70;;
24995;SDS011;13016;52.162;21.034;2023-05-07T17:51:30;2.70;;;1.80;;
24995;SDS011;13016;52.162;21.034;2023-05-07T20:17:29;3.90;;;2.70;;
24995;SDS011;13016;52.162;21.034;2023-05-07T20:24:09;7.40;;;2.80;;
24995;SDS011;13016;52.162;21.034;2023-05-07T21:11:26;7.50;;;3.20;;
24995;SDS011;13016;52.162;21.034;2023-05-07T21:36:51;8.60;;;5.50;;
24995;SDS011;13016;52.162;21.034;2023-05-07T22:08:53;17.00;;;9.10;;
24995;SDS011;13016;52.162;21.034;2023-05-07T23:03:57;15.80;;;8.90;;
24995;SDS011;13016;52.162;21.034;2023-05-07T23:21:16;12.70;;;8.80;;
24995;SDS011;13016;52.162;21.034;2023-05-07T23:27:42;14.60;;;9.40;;
